createdAt,value
2022-12-16T00:00:15.970Z,58.60
2022-12-16T00:02:42.821Z,62.77
2022-12-16T00:05:09.587Z,58.97
2022-12-16T00:07:38.352Z,55.07
2022-12-16T00:10:08.723Z,54.30
2022-12-16T00:12:35.214Z,58.07
2022-12-16T00:15:01.752Z,59.77
2022-12-16T00:17:28.412Z,52.73
2022-12-16T00:19:54.882Z,55.70
2022-12-16T00:22:22.708Z,59.03
2022-12-16T00:24:49.481Z,52.23
2022-12-16T00:27:17.125Z,58.73
2022-12-16T00:29:45.950Z,52.67
2022-12-16T00:32:12.605Z,56.00
2022-12-16T00:34:39.154Z,53.13
2022-12-16T00:37:05.664Z,55.10
2022-12-16T00:39:32.606Z,53.47
2022-12-16T00:41:59.137Z,56.77
2022-12-16T00:44:25.660Z,56.50
2022-12-16T00:46:52.262Z,58.57
2022-12-16T00:49:18.826Z,59.23
2022-12-16T00:51:45.456Z,57.90
2022-12-16T00:54:11.965Z,62.77
2022-12-16T00:56:38.539Z,49.60
2022-12-16T00:59:05.081Z,58.63
2022-12-16T01:01:31.699Z,56.30
2022-12-16T01:03:58.448Z,57.60
2022-12-16T01:06:25.086Z,52.73
2022-12-16T01:08:51.679Z,57.50
2022-12-16T01:11:20.672Z,54.13
2022-12-16T01:13:51.931Z,51.67
2022-12-16T01:16:21.476Z,47.73
2022-12-16T01:18:48.127Z,57.10
2022-12-16T01:21:15.635Z,49.07
2022-12-16T01:23:42.585Z,48.67
2022-12-16T01:26:15.043Z,50.40
2022-12-16T01:28:41.693Z,51.13
2022-12-16T01:31:08.227Z,51.73
2022-12-16T01:33:37.358Z,50.47
2022-12-16T01:36:06.746Z,58.17
2022-12-16T01:38:33.684Z,51.47
2022-12-16T01:41:03.024Z,55.83
2022-12-16T01:43:33.547Z,52.93
2022-12-16T01:46:09.745Z,45.67
2022-12-16T01:48:39.497Z,53.27
2022-12-16T01:51:23.421Z,52.67
2022-12-16T01:53:56.616Z,52.87
2022-12-16T01:56:27.193Z,58.97
2022-12-16T01:58:55.502Z,52.27
2022-12-16T02:01:22.863Z,47.33
2022-12-16T02:03:54.152Z,52.23
2022-12-16T02:06:20.895Z,51.53
2022-12-16T02:08:54.975Z,58.67
2022-12-16T02:11:29.616Z,54.30
2022-12-16T02:14:14.309Z,55.10
2022-12-16T02:16:45.634Z,54.57
2022-12-16T02:19:49.407Z,51.00
2022-12-16T02:22:21.918Z,52.67
2022-12-16T02:25:03.300Z,55.43
2022-12-16T02:27:55.015Z,48.80
2022-12-16T02:30:53.885Z,53.83
2022-12-16T02:33:44.520Z,59.23
2022-12-16T02:36:30.419Z,50.13
2022-12-16T02:39:02.305Z,56.10
2022-12-16T02:42:07.221Z,53.37
2022-12-16T02:44:44.694Z,55.07
2022-12-16T02:47:11.231Z,51.03
2022-12-16T02:49:52.495Z,50.07
2022-12-16T02:52:24.824Z,56.87
2022-12-16T02:55:04.827Z,57.17
2022-12-16T02:58:23.044Z,53.93
2022-12-16T03:01:10.974Z,54.00
2022-12-16T03:03:43.471Z,53.40
2022-12-16T03:06:12.638Z,52.03
2022-12-16T03:08:43.610Z,53.43
2022-12-16T03:11:10.234Z,54.60
2022-12-16T03:13:46.294Z,51.53
2022-12-16T03:16:16.146Z,54.67
2022-12-16T03:18:47.400Z,51.03
2022-12-16T03:21:14.707Z,52.30
2022-12-16T03:23:59.019Z,53.20
2022-12-16T03:26:34.590Z,52.33
2022-12-16T03:29:10.221Z,52.87
2022-12-16T03:31:48.768Z,51.07
2022-12-16T03:34:35.454Z,51.17
2022-12-16T03:37:09.144Z,55.30
2022-12-16T03:39:41.966Z,51.13
2022-12-16T03:42:09.934Z,54.20
2022-12-16T03:44:36.954Z,53.43
2022-12-16T03:47:05.746Z,47.80
2022-12-16T03:49:32.376Z,53.13
2022-12-16T03:51:59.006Z,55.60
2022-12-16T03:54:28.107Z,47.90
2022-12-16T03:56:54.688Z,55.87
2022-12-16T03:59:23.607Z,51.10
2022-12-16T04:01:50.360Z,51.07
2022-12-16T04:04:17.944Z,56.67
2022-12-16T04:06:44.549Z,53.00
2022-12-16T04:09:11.158Z,49.13
2022-12-16T04:11:56.420Z,52.60
2022-12-16T04:14:41.766Z,47.53
2022-12-16T04:17:31.297Z,56.10
2022-12-16T04:20:16.793Z,50.67
2022-12-16T04:23:02.691Z,57.70
2022-12-16T04:25:35.877Z,47.43
2022-12-16T04:28:04.743Z,48.90
2022-12-16T04:30:38.562Z,48.23
2022-12-16T04:33:30.335Z,51.50
2022-12-16T04:36:15.486Z,50.13
2022-12-16T04:39:03.065Z,49.97
2022-12-16T04:41:48.571Z,49.37
2022-12-16T04:44:34.206Z,55.10
2022-12-16T04:47:19.225Z,53.53
2022-12-16T04:50:04.537Z,52.23
2022-12-16T04:52:51.932Z,56.73
2022-12-16T04:55:37.147Z,52.60
2022-12-16T04:58:23.413Z,47.63
2022-12-16T05:01:08.760Z,53.17
2022-12-16T05:03:54.736Z,57.77
2022-12-16T05:06:40.447Z,57.20
2022-12-16T05:09:27.771Z,49.33
2022-12-16T05:12:13.004Z,41.53
2022-12-16T05:14:58.442Z,51.70
2022-12-16T05:17:43.868Z,44.60
2022-12-16T05:20:30.022Z,50.83
2022-12-16T05:23:15.821Z,39.67
2022-12-16T05:26:01.509Z,43.77
2022-12-16T05:28:46.803Z,43.10
2022-12-16T05:31:42.363Z,41.33
2022-12-16T05:34:28.507Z,46.97
2022-12-16T05:37:13.778Z,36.70
2022-12-16T05:40:01.404Z,38.50
2022-12-16T05:42:46.381Z,51.80
2022-12-16T05:45:31.821Z,45.17
2022-12-16T05:48:17.119Z,51.07
2022-12-16T05:51:05.315Z,39.27
2022-12-16T05:53:50.771Z,44.97
2022-12-16T05:56:46.164Z,48.73
2022-12-16T05:59:30.978Z,53.80
2022-12-16T06:02:16.019Z,45.37
2022-12-16T06:05:03.916Z,46.03
2022-12-16T06:07:51.256Z,49.27
2022-12-16T06:10:36.548Z,42.77
2022-12-16T06:13:34.802Z,42.50
2022-12-16T06:16:22.634Z,47.17
2022-12-16T06:19:07.761Z,47.87
2022-12-16T06:21:52.760Z,48.63
2022-12-16T06:24:38.296Z,45.57
2022-12-16T06:27:23.599Z,47.93
2022-12-16T06:30:09.377Z,55.17
2022-12-16T06:32:54.634Z,43.73
2022-12-16T06:35:42.019Z,54.47
2022-12-16T06:38:27.252Z,53.90
2022-12-16T06:41:12.078Z,41.70
2022-12-16T06:43:57.090Z,48.20
2022-12-16T06:46:41.882Z,44.27
2022-12-16T06:49:29.545Z,47.20
2022-12-16T06:52:16.399Z,44.13
2022-12-16T06:55:04.301Z,44.60
2022-12-16T06:57:49.431Z,42.87
2022-12-16T07:00:34.633Z,42.57
2022-12-16T07:03:19.791Z,47.50
2022-12-16T07:06:10.969Z,52.50
2022-12-16T07:08:56.202Z,47.17
2022-12-16T07:11:41.065Z,44.70
2022-12-16T07:14:28.499Z,45.23
2022-12-16T07:17:17.076Z,46.83
2022-12-16T07:20:02.904Z,45.33
2022-12-16T07:22:51.146Z,41.87
2022-12-16T07:25:39.354Z,45.20
2022-12-16T07:28:24.501Z,48.57
2022-12-16T07:31:09.344Z,44.00
2022-12-16T07:33:54.605Z,46.90
2022-12-16T07:36:39.708Z,45.30
2022-12-16T07:39:24.948Z,49.80
2022-12-16T07:42:09.979Z,39.53
2022-12-16T07:44:55.629Z,42.43
2022-12-16T07:47:40.944Z,51.00
2022-12-16T07:50:26.353Z,46.17
2022-12-16T07:53:19.032Z,44.37
2022-12-16T07:56:04.857Z,48.73
2022-12-16T07:58:50.511Z,35.43
2022-12-16T08:01:35.969Z,38.40
2022-12-16T08:04:21.384Z,44.00
2022-12-16T08:07:06.476Z,48.73
2022-12-16T08:09:51.278Z,35.57
2022-12-16T08:12:36.469Z,39.97
2022-12-16T08:15:21.718Z,37.57
2022-12-16T08:18:09.106Z,43.77
2022-12-16T08:20:55.393Z,44.53
2022-12-16T08:23:42.910Z,40.70
2022-12-16T08:26:28.364Z,39.30
2022-12-16T08:29:42.568Z,40.80
2022-12-16T08:32:18.803Z,34.53
2022-12-16T08:35:04.187Z,36.07
2022-12-16T08:37:49.276Z,40.67
2022-12-16T08:40:37.213Z,39.23
2022-12-16T08:43:22.849Z,40.47
2022-12-16T08:46:12.284Z,39.93
2022-12-16T08:48:57.590Z,31.80
2022-12-16T08:51:42.459Z,33.13
2022-12-16T08:54:28.817Z,36.77
2022-12-16T08:57:14.182Z,34.30
2022-12-16T08:59:59.169Z,33.10
2022-12-16T09:02:44.702Z,35.50
2022-12-16T09:05:32.529Z,35.23
2022-12-16T09:08:19.168Z,36.03
2022-12-16T09:11:04.759Z,37.30
2022-12-16T09:13:49.708Z,35.23
2022-12-16T09:16:37.145Z,35.23
2022-12-16T09:19:22.498Z,35.97
2022-12-16T09:22:07.457Z,31.60
2022-12-16T09:24:53.888Z,33.43
2022-12-16T09:27:41.062Z,32.00
2022-12-16T09:30:26.891Z,32.47
2022-12-16T09:33:14.240Z,36.93
2022-12-16T09:35:59.332Z,30.80
2022-12-16T09:38:46.849Z,35.90
2022-12-16T09:42:03.874Z,31.60
2022-12-16T09:44:54.326Z,24.90
2022-12-16T09:47:58.147Z,28.30
2022-12-16T09:50:45.971Z,27.97
2022-12-16T09:53:38.004Z,26.10
2022-12-16T09:56:32.125Z,23.77
2022-12-16T09:59:20.548Z,22.23
2022-12-16T10:02:06.378Z,23.83
2022-12-16T10:04:54.571Z,24.77
2022-12-16T10:07:47.576Z,22.53
2022-12-16T10:10:40.211Z,19.37
2022-12-16T10:13:45.613Z,22.00
2022-12-16T10:16:47.637Z,20.47
2022-12-16T10:19:51.137Z,19.03
2022-12-16T10:22:48.324Z,25.20
2022-12-16T10:25:40.793Z,19.97
2022-12-16T10:28:35.175Z,24.47
2022-12-16T10:31:32.120Z,18.13
2022-12-16T10:34:17.701Z,15.00
2022-12-16T10:37:11.035Z,15.70
2022-12-16T10:40:03.617Z,18.57
2022-12-16T10:42:58.197Z,19.57
2022-12-16T10:45:54.623Z,15.47
2022-12-16T10:48:56.283Z,13.63
2022-12-16T10:51:47.469Z,16.47
2022-12-16T10:54:43.315Z,14.33
2022-12-16T10:57:39.110Z,12.73
2022-12-16T11:00:38.968Z,17.53
2022-12-16T11:03:42.372Z,12.97
2022-12-16T11:06:29.004Z,13.73
2022-12-16T11:09:34.131Z,15.87
2022-12-16T11:12:45.558Z,17.27
2022-12-16T11:15:42.152Z,16.23
2022-12-16T11:18:40.492Z,10.03
2022-12-16T11:21:38.238Z,11.90
2022-12-16T11:24:26.268Z,14.43
2022-12-16T11:27:16.673Z,10.87
2022-12-16T11:30:16.606Z,21.20
2022-12-16T11:33:07.027Z,25.90
2022-12-16T11:35:59.946Z,28.17
2022-12-16T11:39:08.257Z,26.00
2022-12-16T11:42:02.939Z,29.03
2022-12-16T11:44:54.996Z,28.60
2022-12-16T11:47:59.229Z,26.80
2022-12-16T11:50:47.712Z,27.93
2022-12-16T11:53:48.446Z,27.13
2022-12-16T11:56:39.057Z,26.53
2022-12-16T11:59:46.663Z,34.20
2022-12-16T12:02:39.760Z,24.33
2022-12-16T12:05:25.566Z,25.17
2022-12-16T12:08:36.976Z,24.77
2022-12-16T12:11:37.953Z,27.70
2022-12-16T12:14:33.933Z,23.83
2022-12-16T12:17:29.410Z,23.93
2022-12-16T12:20:45.537Z,21.57
2022-12-16T12:23:40.947Z,23.83
2022-12-16T12:26:37.627Z,21.87
2022-12-16T12:29:52.525Z,20.47
2022-12-16T12:33:25.463Z,22.47
2022-12-16T12:36:38.652Z,20.60
2022-12-16T12:39:23.646Z,21.03
2022-12-16T12:42:27.147Z,20.97
2022-12-16T12:45:40.438Z,22.93
2022-12-16T12:48:45.396Z,23.27
2022-12-16T12:51:30.662Z,20.70
2022-12-16T12:54:59.169Z,24.00
2022-12-16T12:57:47.643Z,22.70
2022-12-16T13:00:32.884Z,23.50
2022-12-16T13:03:32.356Z,21.70
2022-12-16T13:06:18.584Z,23.67
2022-12-16T13:09:09.609Z,25.23
2022-12-16T13:11:57.462Z,23.93
2022-12-16T13:14:51.759Z,24.43
2022-12-16T13:17:42.311Z,19.47
2022-12-16T13:20:50.566Z,23.13
2022-12-16T13:23:52.114Z,25.90
2022-12-16T13:26:39.443Z,27.27
2022-12-16T13:29:47.415Z,23.67
2022-12-16T13:32:36.972Z,24.00
2022-12-16T13:35:25.638Z,20.33
2022-12-16T13:38:22.928Z,21.97
2022-12-16T13:41:16.146Z,18.97
2022-12-16T13:44:13.974Z,21.20
2022-12-16T13:47:01.137Z,21.37
2022-12-16T13:49:55.682Z,21.23
2022-12-16T13:52:56.368Z,21.53
2022-12-16T13:55:47.358Z,20.77
2022-12-16T13:58:53.204Z,20.10
2022-12-16T14:01:46.156Z,22.90
2022-12-16T14:04:38.976Z,19.60
2022-12-16T14:07:24.944Z,23.47
2022-12-16T14:10:09.890Z,24.03
2022-12-16T14:13:08.829Z,26.20
2022-12-16T14:16:12.816Z,25.10
2022-12-16T14:19:14.267Z,21.50
2022-12-16T14:22:27.548Z,23.00
2022-12-16T14:25:12.607Z,27.33
2022-12-16T14:27:58.612Z,23.10
2022-12-16T14:30:44.540Z,23.57
2022-12-16T14:33:49.097Z,23.00
2022-12-16T14:36:46.418Z,21.63
2022-12-16T14:39:40.097Z,21.47
2022-12-16T14:42:41.430Z,21.80
2022-12-16T14:45:38.940Z,23.83
2022-12-16T14:48:46.037Z,25.83
2022-12-16T14:51:57.063Z,25.07
2022-12-16T14:55:01.770Z,23.67
2022-12-16T14:57:49.750Z,22.80
2022-12-16T15:00:40.597Z,24.70
2022-12-16T15:03:36.195Z,22.57
2022-12-16T15:06:24.640Z,23.43
2022-12-16T15:09:14.933Z,22.60
2022-12-16T15:12:02.235Z,24.03
2022-12-16T15:14:51.759Z,23.03
2022-12-16T15:17:39.943Z,21.27
2022-12-16T15:20:35.233Z,28.30
2022-12-16T15:23:20.295Z,27.73
2022-12-16T15:26:14.495Z,35.60
2022-12-16T15:29:02.788Z,44.53
2022-12-16T15:31:53.327Z,37.37
2022-12-16T15:34:38.391Z,34.43
2022-12-16T15:37:53.396Z,37.87
2022-12-16T15:40:52.437Z,29.20
2022-12-16T15:43:45.062Z,30.03
2022-12-16T15:46:56.359Z,27.60
2022-12-16T15:50:04.104Z,27.87
2022-12-16T15:52:52.396Z,26.30
2022-12-16T15:56:04.699Z,27.87
2022-12-16T15:58:59.440Z,31.37
2022-12-16T16:01:46.593Z,27.00
2022-12-16T16:04:38.076Z,29.50
2022-12-16T16:07:32.345Z,29.70
2022-12-16T16:10:35.599Z,30.50
2022-12-16T16:13:20.769Z,30.60
2022-12-16T16:16:07.919Z,31.97
2022-12-16T16:18:53.434Z,26.73
2022-12-16T16:21:38.549Z,30.60
2022-12-16T16:24:24.083Z,29.50
2022-12-16T16:27:11.962Z,36.13
2022-12-16T16:29:57.241Z,31.90
2022-12-16T16:32:42.307Z,36.80
2022-12-16T16:35:27.437Z,36.37
2022-12-16T16:38:16.755Z,36.07
2022-12-16T16:41:03.831Z,36.60
2022-12-16T16:43:54.056Z,36.33
2022-12-16T16:46:39.029Z,35.57
2022-12-16T16:49:31.837Z,37.97
2022-12-16T16:52:19.624Z,37.33
2022-12-16T16:55:04.943Z,36.50
2022-12-16T16:57:53.009Z,39.60
2022-12-16T17:00:37.875Z,40.50
2022-12-16T17:03:23.272Z,39.07
2022-12-16T17:06:11.121Z,39.67
2022-12-16T17:08:56.096Z,38.23
2022-12-16T17:11:41.958Z,37.67
2022-12-16T17:14:36.739Z,38.20
2022-12-16T17:17:22.940Z,37.93
2022-12-16T17:20:08.540Z,40.47
2022-12-16T17:22:53.964Z,35.70
2022-12-16T17:25:42.569Z,36.73
2022-12-16T17:28:29.422Z,41.43
2022-12-16T17:31:14.924Z,40.20
2022-12-16T17:33:59.930Z,53.47
2022-12-16T17:36:45.221Z,45.93
2022-12-16T17:39:30.388Z,40.40
2022-12-16T17:42:16.200Z,43.67
2022-12-16T17:45:01.321Z,40.73
2022-12-16T17:47:46.229Z,41.73
2022-12-16T17:50:33.799Z,42.10
2022-12-16T17:53:21.222Z,36.40
2022-12-16T17:56:07.505Z,36.57
2022-12-16T17:58:57.079Z,38.83
2022-12-16T18:01:43.804Z,38.90
2022-12-16T18:04:28.853Z,43.73
2022-12-16T18:07:16.687Z,42.17
2022-12-16T18:10:02.408Z,39.03
2022-12-16T18:12:48.208Z,35.77
2022-12-16T18:15:33.374Z,41.40
2022-12-16T18:18:18.871Z,42.13
2022-12-16T18:21:04.139Z,40.30
2022-12-16T18:23:51.481Z,62.23
2022-12-16T18:26:36.700Z,140.33
2022-12-16T18:29:24.503Z,85.87
2022-12-16T18:32:12.085Z,46.73
2022-12-16T18:34:59.797Z,66.10
2022-12-16T18:37:44.911Z,51.83
2022-12-16T18:40:32.813Z,63.83
2022-12-16T18:43:20.964Z,54.47
2022-12-16T18:46:17.902Z,59.87
2022-12-16T18:49:03.001Z,51.70
2022-12-16T18:51:48.514Z,55.00
2022-12-16T18:54:33.450Z,48.60
2022-12-16T18:57:18.565Z,48.90
2022-12-16T19:00:03.981Z,55.00
2022-12-16T19:02:49.104Z,56.00
2022-12-16T19:05:34.465Z,49.27
2022-12-16T19:08:19.748Z,47.43
2022-12-16T19:11:15.497Z,42.00
2022-12-16T19:14:00.737Z,42.20
2022-12-16T19:16:45.537Z,42.20
2022-12-16T19:19:30.903Z,43.90
2022-12-16T19:22:18.675Z,64.87
2022-12-16T19:25:03.676Z,51.10
2022-12-16T19:27:48.902Z,50.57
2022-12-16T19:30:34.010Z,53.33
2022-12-16T19:33:18.958Z,52.10
2022-12-16T19:36:06.707Z,47.07
2022-12-16T19:38:52.039Z,41.63
2022-12-16T19:41:40.103Z,45.20
2022-12-16T19:44:25.283Z,43.83
2022-12-16T19:47:10.453Z,45.03
2022-12-16T19:49:56.173Z,40.90
2022-12-16T19:52:41.651Z,45.22
2022-12-16T19:55:27.036Z,44.60
2022-12-16T19:58:11.997Z,43.07
2022-12-16T20:00:57.477Z,43.87
2022-12-16T20:03:42.861Z,54.63
2022-12-16T20:06:28.300Z,52.13
2022-12-16T20:09:14.645Z,50.87
2022-12-16T20:12:01.032Z,42.83
2022-12-16T20:14:46.560Z,43.13
2022-12-16T20:17:36.723Z,43.70
2022-12-16T20:20:21.929Z,43.27
2022-12-16T20:23:09.695Z,45.03
2022-12-16T20:29:02.490Z,45.47
2022-12-16T20:31:50.703Z,43.43
2022-12-16T20:34:39.245Z,43.73
2022-12-16T20:37:24.565Z,46.77
2022-12-16T20:40:11.834Z,44.43
2022-12-16T20:42:57.049Z,56.50
2022-12-16T20:45:42.160Z,49.57
2022-12-16T20:48:32.374Z,57.03
2022-12-16T20:51:26.259Z,47.17
2022-12-16T20:54:11.862Z,57.67
2022-12-16T20:57:12.829Z,54.07
2022-12-16T21:00:01.072Z,51.57
2022-12-16T21:02:46.333Z,52.30
2022-12-16T21:05:31.601Z,47.43
2022-12-16T21:08:16.630Z,51.13
2022-12-16T21:11:03.385Z,47.77
2022-12-16T21:13:49.374Z,51.58
2022-12-16T21:16:34.906Z,56.60
2022-12-16T21:19:25.499Z,49.10
2022-12-16T21:22:13.204Z,47.10
2022-12-16T21:24:58.203Z,53.60
2022-12-16T21:27:43.328Z,52.67
2022-12-16T21:30:29.021Z,50.73
2022-12-16T21:33:14.450Z,50.60
2022-12-16T21:35:59.694Z,47.73
2022-12-16T21:38:44.469Z,45.10
2022-12-16T21:41:32.005Z,49.63
2022-12-16T21:44:17.120Z,50.63
2022-12-16T21:47:02.118Z,47.67
2022-12-16T21:49:47.393Z,49.53
2022-12-16T21:52:32.260Z,52.47
2022-12-16T21:55:17.654Z,47.57
2022-12-16T21:58:02.509Z,55.93
2022-12-16T22:00:49.025Z,51.73
2022-12-16T22:03:35.733Z,55.73
2022-12-16T22:06:21.282Z,50.27
2022-12-16T22:09:06.395Z,46.67
2022-12-16T22:11:51.751Z,47.47
2022-12-16T22:14:36.958Z,52.50
2022-12-16T22:17:24.849Z,52.23
2022-12-16T22:20:10.028Z,48.23
2022-12-16T22:22:55.291Z,54.63
2022-12-16T22:25:41.051Z,56.20
2022-12-16T22:28:25.932Z,48.40
2022-12-16T22:31:16.144Z,51.67
2022-12-16T22:34:01.846Z,50.87
2022-12-16T22:36:47.336Z,52.17
2022-12-16T22:39:32.839Z,56.63
2022-12-16T22:42:17.944Z,49.30
2022-12-16T22:45:02.907Z,53.20
2022-12-16T22:47:49.716Z,52.10
2022-12-16T22:50:35.199Z,47.13
2022-12-16T22:53:21.746Z,52.87
2022-12-16T22:56:14.531Z,53.23
2022-12-16T22:58:59.792Z,61.87
2022-12-16T23:01:44.903Z,55.53
2022-12-16T23:04:30.049Z,55.03
2022-12-16T23:07:14.999Z,52.23
2022-12-16T23:10:00.229Z,53.17
2022-12-16T23:12:45.380Z,57.33
2022-12-16T23:15:31.458Z,53.63
2022-12-16T23:18:18.372Z,53.37
2022-12-16T23:21:09.797Z,54.77
2022-12-16T23:23:57.548Z,52.97
2022-12-16T23:26:43.178Z,54.53
2022-12-16T23:29:31.169Z,56.70
2022-12-16T23:32:16.145Z,56.67
2022-12-16T23:35:01.269Z,52.10
2022-12-16T23:37:46.532Z,52.87
2022-12-16T23:40:34.226Z,57.97
2022-12-16T23:43:19.442Z,56.50
2022-12-16T23:46:04.624Z,51.53
2022-12-16T23:48:49.735Z,54.63
2022-12-16T23:51:37.182Z,51.40
2022-12-16T23:54:22.669Z,55.90
2022-12-16T23:57:07.924Z,56.37
2022-12-16T23:59:54.025Z,54.23
